Terminal Aerodrome Forecast
Issued by NWS

Home | Current Version | Previous Version | Text Only | Print | Product List | Glossary On
Versions: 1 2 3 4 5 6 7 8 9 10 11 12 13 14 15 16 17 18 19 20 21 22 23 24 25 26 27 28 29 30 31 32 33 34 35 36 37 38 39
000
FTAK31 PANC 201742
TAFADL
TAF
PADL 201742Z 2018/2118 36022G32KT P6SM -SHRA SCT020 OVC040
      WS020/08045KT
      TEMPO 2018/2021 5SM -RA BR BKN020
     FM202100 01025G35KT P6SM VCSH BKN025 OVC040 WS020/05045KT=

USA.gov is the U.S. government's official web portal to all federal, state and local government web resources and services.